Time;durP1;ratioP1;P1;durP2;ratioP2;P2;SDS_P1;SDS_P2;PMS_P1;PMS_P2;Temp;Humidity;BMP_temperature;BMP_pressure;BME280_temperature;BME280_humidity;BME280_pressure;Samples;Min_cycle;Max_cycle;Signal;HPM_P1;HPM_P2
2022/11/27 00:01:10;;;;;;;21.95;6.72;;;6.20;99.90;;;;;;5052464;28;20215;-44
2022/11/27 00:03:36;;;;;;;24.63;7.63;;;6.50;99.90;;;;;;5034396;28;20416;-45
2022/11/27 00:06:02;;;;;;;22.70;6.53;;;6.40;99.90;;;;;;5052157;28;20123;-44
2022/11/27 00:08:28;;;;;;;18.73;6.22;;;6.10;99.90;;;;;;5052269;28;20061;-44
2022/11/27 00:10:53;;;;;;;25.05;7.13;;;6.10;99.90;;;;;;5052161;28;20072;-45
2022/11/27 00:13:19;;;;;;;19.25;5.97;;;6.40;99.90;;;;;;5052185;28;20076;-48
2022/11/27 00:15:45;;;;;;;20.45;6.07;;;6.40;99.90;;;;;;5034016;28;20537;-45
2022/11/27 00:18:10;;;;;;;22.50;7.25;;;6.50;99.90;;;;;;5052093;28;20094;-46
2022/11/27 00:20:36;;;;;;;21.40;7.13;;;6.40;99.90;;;;;;5034263;28;20040;-50
2022/11/27 00:23:02;;;;;;;19.30;6.35;;;6.10;99.90;;;;;;5052054;28;20112;-43
2022/11/27 00:25:27;;;;;;;18.80;6.65;;;6.10;99.90;;;;;;5051840;28;20116;-44
2022/11/27 00:27:53;;;;;;;18.35;6.28;;;6.50;99.90;;;;;;5051830;28;20045;-48
2022/11/27 00:30:18;;;;;;;22.83;7.00;;;6.00;99.90;;;;;;5052014;28;20037;-49
2022/11/27 00:32:44;;;;;;;21.38;7.18;;;6.30;99.90;;;;;;5051888;28;20044;-47
2022/11/27 00:35:10;;;;;;;17.58;6.10;;;6.40;99.90;;;;;;5051835;28;20044;-46
2022/11/27 00:37:36;;;;;;;23.17;7.22;;;6.00;99.90;;;;;;5051874;28;20045;-48
2022/11/27 00:40:02;;;;;;;20.23;6.28;;;5.90;99.90;;;;;;5051701;28;20045;-47
2022/11/27 00:42:27;;;;;;;21.98;7.03;;;6.30;99.90;;;;;;5051885;28;20041;-47
2022/11/27 00:44:53;;;;;;;19.65;6.63;;;5.90;99.90;;;;;;5051788;28;20029;-49
2022/11/27 00:47:18;;;;;;;17.95;6.63;;;6.10;99.90;;;;;;5033906;28;20044;-45
2022/11/27 00:49:45;;;;;;;22.15;7.82;;;6.10;99.90;;;;;;5051622;28;20041;-48
2022/11/27 00:52:11;;;;;;;18.38;7.00;;;6.00;99.90;;;;;;5051809;28;20067;-45
2022/11/27 00:54:37;;;;;;;18.95;7.95;;;6.20;99.90;;;;;;5033901;28;20508;-45
2022/11/27 00:57:03;;;;;;;21.13;7.25;;;5.80;99.90;;;;;;5043864;28;20041;-44
2022/11/27 00:59:29;;;;;;;19.52;7.95;;;6.00;99.90;;;;;;5035834;28;20042;-45
2022/11/27 01:01:54;;;;;;;15.20;7.28;;;5.90;99.90;;;;;;5035580;28;20102;-44
2022/11/27 01:04:20;;;;;;;22.45;6.85;;;5.90;99.90;;;;;;5035705;28;20045;-45
2022/11/27 01:06:46;;;;;;;16.48;7.22;;;5.80;99.90;;;;;;5035499;28;20141;-49
2022/11/27 01:09:12;;;;;;;20.92;7.68;;;5.90;99.90;;;;;;5035393;28;20084;-46
2022/11/27 01:11:38;;;;;;;21.90;8.27;;;5.90;99.90;;;;;;5035355;28;20037;-49
2022/11/27 01:14:07;;;;;;;19.92;8.55;;;6.10;99.90;;;;;;5017460;28;20041;-44
2022/11/27 01:16:34;;;;;;;18.50;7.47;;;5.90;99.90;;;;;;5035280;28;20064;-46
2022/11/27 01:19:01;;;;;;;20.33;9.02;;;5.90;99.90;;;;;;5035317;28;20535;-44
2022/11/27 01:21:31;;;;;;;30.42;9.63;;;5.70;99.90;;;;;;5035310;28;20045;-44
2022/11/27 01:23:57;;;;;;;22.45;7.90;;;6.00;99.90;;;;;;5035241;28;20048;-44
2022/11/27 01:26:23;;;;;;;21.75;7.28;;;5.80;99.90;;;;;;5035182;28;20041;-44
2022/11/27 01:28:53;;;;;;;16.88;6.72;;;6.00;99.90;;;;;;5035179;28;20048;-46
2022/11/27 01:31:22;;;;;;;22.92;7.72;;;6.00;99.90;;;;;;5035231;28;20133;-46
2022/11/27 01:33:55;;;;;;;17.52;6.72;;;5.70;99.90;;;;;;5035196;28;20044;-44
2022/11/27 01:36:22;;;;;;;18.80;6.95;;;5.80;99.90;;;;;;5035002;28;20080;-44
2022/11/27 01:38:48;;;;;;;20.67;7.85;;;5.80;99.90;;;;;;5035061;28;20494;-45
2022/11/27 01:41:19;;;;;;;18.63;7.03;;;5.80;99.90;;;;;;5035064;28;20048;-44
2022/11/27 01:43:54;;;;;;;17.60;7.47;;;5.60;99.90;;;;;;5035129;28;20057;-47
2022/11/27 01:46:42;;;;;;;20.23;7.38;;;5.60;99.90;;;;;;5034738;28;20077;-44
2022/11/27 01:49:08;;;;;;;16.58;6.72;;;5.70;99.90;;;;;;5034811;28;20429;-43
2022/11/27 01:51:45;;;;;;;19.70;7.60;;;5.50;99.90;;;;;;5034919;28;20052;-44
2022/11/27 01:54:13;;;;;;;20.00;7.53;;;5.60;99.90;;;;;;5034749;28;20037;-44
2022/11/27 01:56:42;;;;;;;17.05;7.68;;;5.60;99.90;;;;;;5040641;28;20048;-46
2022/11/27 01:59:08;;;;;;;19.27;7.07;;;5.60;99.90;;;;;;5054326;28;20401;-46
2022/11/27 02:01:33;;;;;;;18.98;7.35;;;5.60;99.90;;;;;;5054538;28;20095;-44
2022/11/27 02:04:00;;;;;;;18.70;7.18;;;5.50;99.90;;;;;;5054521;28;20072;-44
2022/11/27 02:06:27;;;;;;;17.20;6.45;;;5.80;99.90;;;;;;5054367;28;20080;-46
2022/11/27 02:08:53;;;;;;;16.88;7.22;;;5.80;99.90;;;;;;5053422;28;20433;-44
2022/11/27 02:11:27;;;;;;;16.88;7.47;;;5.50;99.90;;;;;;5054261;28;20040;-45
2022/11/27 02:14:02;;;;;;;19.67;7.15;;;5.60;99.90;;;;;;5054218;28;20043;-45
2022/11/27 02:17:06;;;;;;;20.08;7.28;;;5.60;99.90;;;;;;5051969;28;20057;-44
2022/11/27 02:19:59;;;;;;;17.02;6.85;;;5.80;99.90;;;;;;5013116;28;20056;-45
2022/11/27 02:22:53;;;;;;;17.55;7.20;;;5.80;99.90;;;;;;5054301;28;20068;-46
2022/11/27 02:25:37;;;;;;;16.80;6.95;;;5.60;99.90;;;;;;5054173;28;20051;-44
2022/11/27 02:28:41;;;;;;;13.50;6.00;;;5.80;99.90;;;;;;5054262;28;20482;-44
2022/11/27 02:31:20;;;;;;;14.23;6.55;;;5.90;99.90;;;;;;5016759;28;20057;-45
2022/11/27 02:33:52;;;;;;;18.13;6.82;;;5.70;99.90;;;;;;5054030;28;20033;-44
2022/11/27 02:36:28;;;;;;;17.00;6.60;;;5.70;99.90;;;;;;5053965;28;20496;-44
2022/11/27 02:39:01;;;;;;;18.52;6.90;;;5.80;99.90;;;;;;5053706;28;20033;-46
2022/11/27 02:41:36;;;;;;;15.18;6.00;;;5.90;99.90;;;;;;5053802;28;20087;-44
2022/11/27 02:44:03;;;;;;;20.55;8.40;;;5.70;99.90;;;;;;5053979;28;20394;-45
2022/11/27 02:46:29;;;;;;;15.70;6.28;;;5.80;99.90;;;;;;5053471;28;20078;-44
2022/11/27 02:48:59;;;;;;;16.20;6.30;;;5.80;99.90;;;;;;5053645;28;20116;-45
2022/11/27 02:51:30;;;;;;;16.40;7.03;;;5.70;99.90;;;;;;5053311;28;20757;-46
2022/11/27 02:54:03;;;;;;;22.70;6.25;;;5.80;99.90;;;;;;5053753;28;20048;-49
2022/11/27 02:56:30;;;;;;;20.90;7.22;;;5.80;99.90;;;;;;5048885;28;20048;-46
2022/11/27 02:59:00;;;;;;;21.75;7.75;;;6.00;99.90;;;;;;5033511;28;20038;-49
2022/11/27 03:01:31;;;;;;;18.70;7.72;;;5.90;99.90;;;;;;5033510;28;20045;-44
2022/11/27 03:03:58;;;;;;;18.08;6.68;;;5.90;99.90;;;;;;5033362;28;20045;-47
2022/11/27 03:06:30;;;;;;;16.48;7.43;;;5.90;99.90;;;;;;5033378;28;20038;-48
2022/11/27 03:08:55;;;;;;;21.17;7.00;;;5.80;99.90;;;;;;5033479;28;20041;-45
2022/11/27 03:11:21;;;;;;;22.77;7.60;;;5.90;99.90;;;;;;5033274;28;20067;-44
2022/11/27 03:13:53;;;;;;;21.40;7.45;;;5.90;99.90;;;;;;5033178;28;20083;-46
2022/11/27 03:16:34;;;;;;;16.80;7.15;;;5.90;99.90;;;;;;5032927;28;20386;-48
2022/11/27 03:19:19;;;;;;;18.33;7.10;;;5.90;99.90;;;;;;5033100;28;20053;-47
2022/11/27 03:21:52;;;;;;;23.02;9.82;;;5.90;99.90;;;;;;5032954;28;20050;-46
2022/11/27 03:24:18;;;;;;;18.13;8.18;;;5.90;99.90;;;;;;5033039;28;20045;-45
2022/11/27 03:26:44;;;;;;;17.90;6.43;;;5.90;99.90;;;;;;5032722;28;20635;-45
2022/11/27 03:29:38;;;;;;;18.90;6.97;;;6.10;99.90;;;;;;5032981;28;20425;-49
2022/11/27 03:32:04;;;;;;;17.00;7.15;;;5.90;99.90;;;;;;5028776;28;20056;-45
2022/11/27 03:34:31;;;;;;;18.02;6.93;;;6.00;99.90;;;;;;5032928;28;20042;-44
2022/11/27 03:36:57;;;;;;;16.75;6.68;;;6.00;99.90;;;;;;5032851;28;20132;-48
2022/11/27 03:39:23;;;;;;;20.17;6.78;;;5.90;99.90;;;;;;5032819;28;20100;-48
2022/11/27 03:41:52;;;;;;;20.35;6.70;;;6.00;99.90;;;;;;5033042;28;20044;-48
2022/11/27 03:44:38;;;;;;;17.83;7.35;;;6.00;99.90;;;;;;5032631;28;20432;-49
2022/11/27 03:47:03;;;;;;;16.55;6.40;;;6.00;99.90;;;;;;5032440;28;20041;-45
2022/11/27 03:49:53;;;;;;;18.63;6.75;;;6.00;99.90;;;;;;5032582;28;20181;-49
2022/11/27 03:52:37;;;;;;;16.65;7.30;;;6.10;99.90;;;;;;5032662;28;20041;-46
2022/11/27 03:55:03;;;;;;;15.48;6.93;;;5.90;99.90;;;;;;5032703;28;20124;-45
2022/11/27 03:57:34;;;;;;;15.80;6.35;;;6.00;99.90;;;;;;5044992;28;20120;-45
2022/11/27 04:00:05;;;;;;;16.60;6.22;;;6.00;99.90;;;;;;5052306;28;20048;-46
2022/11/27 04:02:48;;;;;;;15.77;6.20;;;5.90;99.90;;;;;;5052137;28;20087;-45
2022/11/27 04:05:14;;;;;;;17.33;7.13;;;6.00;99.90;;;;;;5052374;28;20037;-44
2022/11/27 04:07:40;;;;;;;16.73;6.65;;;6.00;99.90;;;;;;5052139;28;20033;-45
2022/11/27 04:10:07;;;;;;;17.48;5.80;;;6.00;99.90;;;;;;5052149;28;20041;-44
2022/11/27 04:12:33;;;;;;;19.05;6.68;;;6.00;99.90;;;;;;5051980;28;20032;-45
2022/11/27 04:14:59;;;;;;;19.13;6.60;;;6.00;99.90;;;;;;5034234;28;20550;-44
2022/11/27 04:17:25;;;;;;;16.73;5.68;;;6.00;99.90;;;;;;5052315;28;20436;-45
2022/11/27 04:19:51;;;;;;;16.13;6.72;;;6.10;99.90;;;;;;5051867;28;20040;-44
2022/11/27 04:22:16;;;;;;;14.38;5.93;;;6.10;99.90;;;;;;5051890;28;20045;-53
2022/11/27 04:24:42;;;;;;;17.85;5.82;;;6.00;99.90;;;;;;5052037;28;20036;-54
2022/11/27 04:27:08;;;;;;;15.43;6.13;;;6.10;99.90;;;;;;5033836;28;20397;-49
2022/11/27 04:29:35;;;;;;;15.75;6.32;;;6.00;99.90;;;;;;5051995;28;20401;-45
2022/11/27 04:32:01;;;;;;;16.33;5.60;;;6.20;99.90;;;;;;5051174;28;20048;-45
2022/11/27 04:34:27;;;;;;;13.02;5.50;;;6.00;99.90;;;;;;5052057;28;20055;-44
2022/11/27 04:36:52;;;;;;;13.50;5.40;;;6.00;99.90;;;;;;5034125;28;20473;-45
2022/11/27 04:39:18;;;;;;;16.83;5.78;;;6.20;99.90;;;;;;5051835;28;20037;-45
2022/11/27 04:41:44;;;;;;;13.73;5.43;;;6.10;99.90;;;;;;5051862;28;20478;-45
2022/11/27 04:44:10;;;;;;;13.65;5.40;;;6.10;99.90;;;;;;5051921;28;20040;-44
2022/11/27 04:46:36;;;;;;;14.57;5.30;;;6.10;99.90;;;;;;5034046;28;20037;-44
2022/11/27 04:49:02;;;;;;;17.10;6.03;;;6.10;99.90;;;;;;5051753;28;20037;-44
2022/11/27 04:51:28;;;;;;;18.20;6.93;;;6.10;99.90;;;;;;5051834;28;20037;-44
2022/11/27 04:53:54;;;;;;;17.35;5.82;;;6.10;99.90;;;;;;5051693;28;20037;-47
2022/11/27 04:56:20;;;;;;;12.93;5.30;;;6.20;99.90;;;;;;5048280;28;20528;-46
2022/11/27 04:58:45;;;;;;;13.20;5.00;;;6.20;99.90;;;;;;5014068;28;20037;-45
2022/11/27 05:01:11;;;;;;;14.85;5.00;;;6.10;99.90;;;;;;5031974;28;20141;-46
2022/11/27 05:03:36;;;;;;;14.80;5.53;;;6.20;99.90;;;;;;5031630;28;20074;-46
2022/11/27 05:06:02;;;;;;;10.90;4.93;;;6.10;99.90;;;;;;5031868;28;20152;-44
2022/11/27 05:08:30;;;;;;;15.52;5.65;;;6.10;99.90;;;;;;5031715;28;20045;-45
2022/11/27 05:11:05;;;;;;;21.85;7.45;;;6.10;99.90;;;;;;5031644;28;20045;-45
2022/11/27 05:13:31;;;;;;;12.70;5.32;;;6.10;99.90;;;;;;5031381;28;20548;-45
2022/11/27 05:15:57;;;;;;;12.32;5.50;;;6.10;99.90;;;;;;5031527;28;20045;-47
2022/11/27 05:18:23;;;;;;;16.48;4.93;;;6.10;99.90;;;;;;5031694;28;20056;-48
2022/11/27 05:21:15;;;;;;;15.00;5.18;;;6.10;99.90;;;;;;5031552;28;20034;-47
2022/11/27 05:23:41;;;;;;;13.65;4.88;;;6.10;99.90;;;;;;5010752;28;20562;-45
2022/11/27 05:26:06;;;;;;;15.75;5.15;;;6.00;99.90;;;;;;5013867;28;20128;-44
2022/11/27 05:28:32;;;;;;;15.20;5.43;;;6.10;99.90;;;;;;5031411;28;20120;-45
2022/11/27 05:30:58;;;;;;;12.90;4.30;;;6.00;99.90;;;;;;5031527;28;20037;-45
2022/11/27 05:33:24;;;;;;;12.40;4.55;;;6.00;99.90;;;;;;5031470;28;20045;-44
2022/11/27 05:35:49;;;;;;;11.45;4.72;;;6.00;99.90;;;;;;5031423;28;20404;-45
2022/11/27 05:38:15;;;;;;;14.25;4.80;;;6.00;99.90;;;;;;5031446;28;20034;-49
2022/11/27 05:40:40;;;;;;;11.90;5.13;;;6.10;99.90;;;;;;5031530;28;20402;-45
2022/11/27 05:43:06;;;;;;;14.32;4.70;;;6.10;99.90;;;;;;5015261;28;20511;-46
2022/11/27 05:45:32;;;;;;;15.57;4.93;;;6.00;99.90;;;;;;5017232;28;20037;-47
2022/11/27 05:47:57;;;;;;;13.43;4.40;;;6.10;99.90;;;;;;5034905;28;20124;-47
2022/11/27 05:50:23;;;;;;;13.15;4.38;;;6.00;99.90;;;;;;5034595;28;20037;-45
2022/11/27 05:52:48;;;;;;;13.45;4.40;;;6.00;99.90;;;;;;5035039;28;20069;-45
2022/11/27 05:55:14;;;;;;;13.77;4.00;;;6.10;99.90;;;;;;5034821;28;20045;-47
2022/11/27 05:57:40;;;;;;;13.88;4.43;;;6.00;99.90;;;;;;5049299;28;20091;-50
2022/11/27 06:00:06;;;;;;;16.27;4.32;;;6.00;99.90;;;;;;5054531;28;20070;-46
2022/11/27 06:02:32;;;;;;;11.70;3.90;;;6.00;99.90;;;;;;5054608;28;20072;-47
2022/11/27 06:04:58;;;;;;;11.73;4.10;;;6.10;99.90;;;;;;5036667;28;20072;-47
2022/11/27 06:07:23;;;;;;;14.63;4.05;;;6.00;99.90;;;;;;5054432;28;20041;-44
2022/11/27 06:09:49;;;;;;;12.07;4.07;;;6.10;99.90;;;;;;5036888;28;20120;-45
2022/11/27 06:12:15;;;;;;;13.30;4.22;;;6.10;99.90;;;;;;5054416;28;20401;-47
2022/11/27 06:14:40;;;;;;;12.65;4.00;;;6.10;99.90;;;;;;5054291;28;20037;-45
2022/11/27 06:17:06;;;;;;;12.60;3.67;;;6.00;99.90;;;;;;5036308;28;20052;-45
2022/11/27 06:19:31;;;;;;;14.10;4.15;;;6.10;99.90;;;;;;5036304;28;20048;-44
2022/11/27 06:21:57;;;;;;;14.20;4.57;;;6.10;99.90;;;;;;5054155;28;20045;-46
2022/11/27 06:24:23;;;;;;;11.23;3.90;;;6.00;99.90;;;;;;5054240;28;20086;-45
2022/11/27 06:26:48;;;;;;;14.63;4.03;;;6.10;99.90;;;;;;5036191;28;20128;-44
2022/11/27 06:29:14;;;;;;;13.23;4.13;;;6.00;99.90;;;;;;5053915;28;20044;-46
2022/11/27 06:31:40;;;;;;;10.98;4.68;;;6.00;99.90;;;;;;5053952;28;20040;-45
2022/11/27 06:34:06;;;;;;;14.02;4.00;;;6.10;99.90;;;;;;5053924;28;20433;-45
2022/11/27 06:36:35;;;;;;;13.57;4.35;;;6.00;99.90;;;;;;5054171;28;20469;-44
2022/11/27 06:39:03;;;;;;;12.02;4.30;;;6.00;99.90;;;;;;5053872;28;20076;-45
2022/11/27 06:41:28;;;;;;;11.38;3.92;;;6.00;99.90;;;;;;5053875;28;20040;-46
2022/11/27 06:43:56;;;;;;;11.63;4.25;;;6.00;99.90;;;;;;5053801;28;20055;-48
2022/11/27 06:46:23;;;;;;;12.10;3.45;;;6.00;99.90;;;;;;5053552;28;20044;-47
2022/11/27 06:48:50;;;;;;;15.00;5.03;;;6.00;99.90;;;;;;5053558;28;20040;-46
2022/11/27 06:51:27;;;;;;;12.05;4.13;;;6.00;99.90;;;;;;5053664;28;20040;-46
2022/11/27 06:53:53;;;;;;;12.52;4.10;;;6.00;99.90;;;;;;5053351;28;20095;-44
2022/11/27 06:56:22;;;;;;;13.50;4.47;;;6.00;99.90;;;;;;5049914;28;20557;-44
2022/11/27 06:58:52;;;;;;;12.48;4.00;;;6.00;99.90;;;;;;5033506;28;20037;-46
2022/11/27 07:01:18;;;;;;;16.35;4.18;;;6.00;99.90;;;;;;5033718;28;20088;-44
2022/11/27 07:03:44;;;;;;;13.15;3.40;;;6.00;99.90;;;;;;5033724;28;20117;-45
2022/11/27 07:06:13;;;;;;;9.20;2.95;;;6.00;99.90;;;;;;5015658;28;20437;-43
2022/11/27 07:08:41;;;;;;;9.48;3.42;;;6.10;99.90;;;;;;5033547;28;20476;-46
2022/11/27 07:11:18;;;;;;;9.25;3.17;;;6.00;99.90;;;;;;5033405;28;20042;-44
2022/11/27 07:13:45;;;;;;;11.07;3.05;;;6.00;99.90;;;;;;5033124;28;20100;-47
2022/11/27 07:16:12;;;;;;;8.93;3.00;;;6.00;99.90;;;;;;5032823;28;20085;-44
2022/11/27 07:18:56;;;;;;;8.00;2.92;;;6.10;99.90;;;;;;5033162;28;20049;-45
2022/11/27 07:21:22;;;;;;;14.63;3.45;;;6.00;99.90;;;;;;5033108;28;20049;-45
2022/11/27 07:23:48;;;;;;;9.15;3.35;;;6.00;99.90;;;;;;5033250;28;20107;-47
2022/11/27 07:26:16;;;;;;;7.40;3.17;;;6.10;99.90;;;;;;5032909;28;20394;-46
2022/11/27 07:28:42;;;;;;;8.00;2.85;;;6.10;99.90;;;;;;5033147;28;20092;-46
2022/11/27 07:31:09;;;;;;;10.23;3.75;;;6.00;99.90;;;;;;5015248;28;20783;-45
2022/11/27 07:33:35;;;;;;;9.43;3.22;;;6.00;99.90;;;;;;5015188;28;20041;-54
2022/11/27 07:36:11;;;;;;;9.55;2.88;;;6.10;99.90;;;;;;5015009;28;20041;-45
2022/11/27 07:38:37;;;;;;;6.25;2.60;;;6.00;99.90;;;;;;5032794;28;20045;-46
2022/11/27 07:41:04;;;;;;;10.13;3.38;;;6.00;99.90;;;;;;5032591;28;20091;-46
2022/11/27 07:43:31;;;;;;;7.15;2.70;;;6.00;99.90;;;;;;5015183;28;20033;-44
2022/11/27 07:45:57;;;;;;;8.82;2.85;;;6.00;99.90;;;;;;5032813;28;20037;-44
2022/11/27 07:48:23;;;;;;;11.75;3.47;;;6.00;99.90;;;;;;5032638;28;20776;-47
2022/11/27 07:50:49;;;;;;;10.68;3.58;;;6.10;99.90;;;;;;5032622;28;20069;-45
2022/11/27 07:53:15;;;;;;;11.35;2.88;;;6.10;99.90;;;;;;5032491;28;20048;-46
2022/11/27 07:55:40;;;;;;;9.60;3.35;;;6.10;99.90;;;;;;5032621;28;20095;-44
2022/11/27 07:58:07;;;;;;;11.80;2.95;;;6.00;99.90;;;;;;5050449;28;20040;-47
2022/11/27 08:00:34;;;;;;;9.55;3.35;;;6.10;99.90;;;;;;5052334;28;20473;-44
2022/11/27 08:03:00;;;;;;;9.48;3.80;;;6.10;99.90;;;;;;5034328;28;20041;-45
2022/11/27 08:05:27;;;;;;;11.77;3.13;;;6.10;99.90;;;;;;5052056;28;20396;-45
2022/11/27 08:07:53;;;;;;;9.50;3.10;;;6.20;99.90;;;;;;5051663;28;20045;-46
2022/11/27 08:10:19;;;;;;;10.55;3.67;;;6.10;99.90;;;;;;5052242;28;20128;-43
2022/11/27 08:12:44;;;;;;;9.73;3.55;;;6.20;99.90;;;;;;5052180;28;20108;-45
2022/11/27 08:15:10;;;;;;;9.48;3.47;;;6.20;99.90;;;;;;5052199;28;20037;-46
2022/11/27 08:17:37;;;;;;;8.18;3.05;;;6.10;99.90;;;;;;5034254;28;20168;-48
2022/11/27 08:20:04;;;;;;;8.27;3.30;;;6.10;99.90;;;;;;5034292;28;20049;-47
2022/11/27 08:22:30;;;;;;;10.88;3.75;;;6.10;99.90;;;;;;5052028;28;20055;-46
2022/11/27 08:24:55;;;;;;;8.07;3.80;;;6.10;99.90;;;;;;5052018;28;20033;-50
2022/11/27 08:27:21;;;;;;;13.70;4.35;;;6.10;99.90;;;;;;5051941;28;20053;-47
2022/11/27 08:29:47;;;;;;;10.95;3.42;;;6.10;99.90;;;;;;5034192;28;20502;-47
2022/11/27 08:32:12;;;;;;;12.13;3.67;;;6.10;99.90;;;;;;5051842;28;20094;-45
2022/11/27 08:34:38;;;;;;;9.02;3.40;;;6.10;99.90;;;;;;5034288;28;20051;-48
2022/11/27 08:37:04;;;;;;;8.85;3.10;;;6.20;99.90;;;;;;5051782;28;20059;-50
2022/11/27 08:39:30;;;;;;;7.93;3.50;;;6.20;99.90;;;;;;5052182;28;20106;-47
2022/11/27 08:41:56;;;;;;;14.93;3.30;;;6.10;99.90;;;;;;5034107;28;20037;-45
2022/11/27 08:44:21;;;;;;;9.98;3.10;;;6.10;99.90;;;;;;5052007;28;20037;-44
2022/11/27 08:46:47;;;;;;;8.82;3.22;;;6.10;99.90;;;;;;5051618;28;20481;-45
2022/11/27 08:49:13;;;;;;;11.00;3.58;;;6.10;99.90;;;;;;5051638;28;20091;-45
2022/11/27 08:51:39;;;;;;;9.48;3.53;;;6.20;99.90;;;;;;5051559;28;20553;-45
2022/11/27 08:54:05;;;;;;;13.60;3.60;;;6.20;99.90;;;;;;5033960;28;20560;-44
2022/11/27 08:56:30;;;;;;;9.27;3.40;;;6.20;99.90;;;;;;5046828;28;20049;-45
2022/11/27 08:58:56;;;;;;;10.55;3.65;;;6.10;99.90;;;;;;5031652;28;20512;-48
2022/11/27 09:01:28;;;;;;;10.07;3.83;;;6.20;99.90;;;;;;5031820;28;20476;-44
2022/11/27 09:03:55;;;;;;;10.82;3.55;;;6.10;99.90;;;;;;5014472;28;20033;-45
2022/11/27 09:06:23;;;;;;;10.45;3.83;;;6.10;99.90;;;;;;5031715;28;20038;-46
2022/11/27 09:08:49;;;;;;;9.65;3.50;;;6.10;99.90;;;;;;5031648;28;20183;-44
2022/11/27 09:11:17;;;;;;;11.40;4.72;;;6.20;99.90;;;;;;5031908;28;20044;-46
2022/11/27 09:13:43;;;;;;;12.15;3.65;;;6.20;99.90;;;;;;5031642;28;20041;-46
2022/11/27 09:16:12;;;;;;;11.77;4.13;;;6.20;99.90;;;;;;5031607;28;20132;-46
2022/11/27 09:18:38;;;;;;;11.57;4.70;;;6.20;99.90;;;;;;5034148;28;20045;-44
2022/11/27 09:21:07;;;;;;;11.02;3.78;;;6.20;99.90;;;;;;5035457;28;20041;-45
2022/11/27 09:23:33;;;;;;;12.35;4.07;;;6.10;99.90;;;;;;5035566;28;20037;-46
2022/11/27 09:26:04;;;;;;;12.35;4.00;;;6.10;99.90;;;;;;5035168;28;20042;-46
2022/11/27 09:28:31;;;;;;;10.65;3.97;;;6.20;99.90;;;;;;5035459;28;20041;-43
2022/11/27 09:31:01;;;;;;;12.07;3.95;;;6.10;99.90;;;;;;5035402;28;20120;-44
2022/11/27 09:33:29;;;;;;;9.75;3.50;;;6.10;99.90;;;;;;5035103;28;20033;-44
2022/11/27 09:35:55;;;;;;;13.75;4.75;;;6.10;99.90;;;;;;5035444;28;20034;-45
2022/11/27 09:38:22;;;;;;;9.27;4.03;;;6.10;99.90;;;;;;5035009;28;20099;-46
2022/11/27 09:41:01;;;;;;;8.60;3.97;;;6.00;99.90;;;;;;5035116;28;20079;-46
2022/11/27 09:43:33;;;;;;;10.35;4.47;;;6.10;99.90;;;;;;5035013;28;20083;-45
2022/11/27 09:46:08;;;;;;;9.18;3.45;;;6.10;99.90;;;;;;5034953;28;20556;-45
2022/11/27 09:48:38;;;;;;;10.00;4.00;;;6.10;99.90;;;;;;5017390;28;20103;-45
2022/11/27 09:51:32;;;;;;;12.63;4.43;;;6.10;99.90;;;;;;5034768;28;20576;-44
2022/11/27 09:54:12;;;;;;;12.10;4.55;;;6.00;99.90;;;;;;5034967;28;20189;-45
2022/11/27 09:56:39;;;;;;;11.63;4.82;;;6.00;99.90;;;;;;5040656;28;20489;-44
2022/11/27 09:59:14;;;;;;;12.30;4.93;;;6.00;99.90;;;;;;5054785;28;20051;-48
2022/11/27 10:01:40;;;;;;;11.05;4.75;;;6.10;99.90;;;;;;5054749;28;20099;-47
2022/11/27 10:04:10;;;;;;;12.35;4.53;;;6.00;99.90;;;;;;5054574;28;20432;-48
2022/11/27 10:06:58;;;;;;;10.20;4.43;;;6.10;99.90;;;;;;5054467;28;20094;-48
2022/11/27 10:10:06;;;;;;;11.00;4.82;;;6.00;99.90;;;;;;5054293;28;20520;-46
2022/11/27 10:12:32;;;;;;;14.02;4.78;;;6.00;99.90;;;;;;5054400;28;20170;-46
2022/11/27 10:14:58;;;;;;;14.15;4.78;;;6.10;99.90;;;;;;5054344;28;20792;-45
2022/11/27 10:17:51;;;;;;;11.40;4.10;;;6.00;99.90;;;;;;5032927;28;20061;-48
2022/11/27 10:20:43;;;;;;;11.18;4.88;;;6.20;99.90;;;;;;5034283;28;20045;-45
2022/11/27 10:23:09;;;;;;;;;;;6.00;99.90;;;;;;5034621;28;20458;-49
2022/11/27 10:25:48;;;;;;;9.88;4.72;;;6.20;99.90;;;;;;5033953;28;20007;-47
2022/11/27 10:28:32;;;;;;;11.40;4.75;;;6.10;99.90;;;;;;5034199;28;20107;-45
2022/11/27 10:31:13;;;;;;;11.05;5.32;;;6.10;99.90;;;;;;5033446;28;20398;-46
2022/11/27 10:33:53;;;;;;;13.73;4.72;;;6.10;99.90;;;;;;5034094;28;20124;-48
2022/11/27 10:36:44;;;;;;;12.45;5.80;;;6.20;99.90;;;;;;5033998;28;20045;-46
2022/11/27 10:39:24;;;;;;;12.25;5.18;;;6.00;99.90;;;;;;5022118;28;20063;-46
2022/11/27 10:42:02;;;;;;;12.57;4.32;;;6.00;99.90;;;;;;5033961;28;20099;-46
2022/11/27 10:44:33;;;;;;;13.90;4.85;;;6.00;99.90;;;;;;5033686;28;20060;-48
2022/11/27 10:47:05;;;;;;;12.73;4.70;;;6.00;99.90;;;;;;5033712;28;20093;-44
2022/11/27 10:49:32;;;;;;;;;;;6.00;99.90;;;;;;5034144;28;20136;-47
2022/11/27 10:51:58;;;;;;;12.43;4.72;;;6.20;99.90;;;;;;5033804;28;19917;-44
2022/11/27 10:54:33;;;;;;;12.02;5.32;;;6.30;99.90;;;;;;5033629;28;20045;-48
2022/11/27 10:57:17;;;;;;;12.15;4.85;;;6.20;99.90;;;;;;5024991;28;20457;-46
2022/11/27 11:00:00;;;;;;;9.80;4.95;;;6.10;99.90;;;;;;5014022;28;20108;-44
2022/11/27 11:02:34;;;;;;;18.33;6.03;;;6.10;99.90;;;;;;5013795;28;20156;-47
2022/11/27 11:05:29;;;;;;;12.15;5.05;;;6.30;99.90;;;;;;5013604;28;20045;-47
2022/11/27 11:08:13;;;;;;;14.48;5.25;;;6.20;99.90;;;;;;5005164;28;20401;-45
2022/11/27 11:10:48;;;;;;;13.90;5.47;;;6.10;99.90;;;;;;5013647;28;20046;-44
2022/11/27 11:13:20;;;;;;;10.20;4.68;;;6.30;99.90;;;;;;5013525;28;20037;-44
2022/11/27 11:16:02;;;;;;;12.98;4.93;;;6.20;99.90;;;;;;5012615;28;20120;-45
2022/11/27 11:18:42;;;;;;;12.70;5.68;;;6.20;99.90;;;;;;5033443;28;20111;-58
2022/11/27 11:21:37;;;;;;;12.82;6.00;;;6.10;99.90;;;;;;5033115;28;20037;-58
2022/11/27 11:24:05;;;;;;;12.02;5.63;;;6.30;99.90;;;;;;5030719;28;20053;-58
2022/11/27 11:26:35;;;;;;;12.15;5.05;;;6.40;99.90;;;;;;5015301;28;20041;-58
2022/11/27 11:29:04;;;;;;;14.80;6.10;;;6.20;99.90;;;;;;5033076;28;20037;-58
2022/11/27 11:31:38;;;;;;;13.77;6.45;;;6.10;99.90;;;;;;5032946;28;20049;-58
2022/11/27 11:34:18;;;;;;;13.77;5.85;;;6.20;99.90;;;;;;5033026;28;20098;-58
2022/11/27 11:37:05;;;;;;;19.20;6.65;;;6.30;99.90;;;;;;5032863;28;20081;-58
2022/11/27 11:39:43;;;;;;;14.43;5.50;;;6.40;99.90;;;;;;5032748;28;20096;-57
2022/11/27 11:42:21;;;;;;;13.50;5.95;;;6.20;99.90;;;;;;5032713;28;20099;-57
2022/11/27 11:45:10;;;;;;;15.82;5.22;;;6.40;99.90;;;;;;5032821;28;20033;-59
2022/11/27 11:47:47;;;;;;;13.27;5.00;;;6.30;99.90;;;;;;5022073;28;20144;-59
2022/11/27 11:50:29;;;;;;;12.98;6.57;;;6.40;99.90;;;;;;5032707;28;20042;-58
2022/11/27 11:53:16;;;;;;;15.25;4.70;;;6.40;99.90;;;;;;5032604;28;20041;-57
2022/11/27 11:56:11;;;;;;;13.95;5.72;;;6.30;99.90;;;;;;5032646;28;20041;-58
2022/11/27 11:58:56;;;;;;;13.10;4.90;;;6.40;99.90;;;;;;5019195;28;20510;-59
2022/11/27 12:01:24;;;;;;;12.27;5.68;;;6.20;99.90;;;;;;5032294;28;20052;-58
2022/11/27 12:04:27;;;;;;;12.95;5.13;;;6.40;99.90;;;;;;5032530;28;20490;-59
2022/11/27 12:07:14;;;;;;;14.38;5.60;;;6.30;99.90;;;;;;5032219;28;20049;-58
2022/11/27 12:09:54;;;;;;;10.63;5.15;;;6.30;99.90;;;;;;5032332;28;20099;-58
2022/11/27 12:12:44;;;;;;;14.05;6.20;;;6.30;99.90;;;;;;5032146;28;20077;-58
2022/11/27 12:15:29;;;;;;;13.13;5.40;;;6.30;99.90;;;;;;5032387;28;20038;-57
2022/11/27 12:18:06;;;;;;;13.48;6.03;;;6.40;99.90;;;;;;5032024;28;20090;-59
2022/11/27 12:21:02;;;;;;;17.35;5.80;;;6.40;99.90;;;;;;5032137;28;20075;-58
2022/11/27 12:23:44;;;;;;;13.18;4.40;;;6.30;99.90;;;;;;5032185;28;20125;-57
2022/11/27 12:26:21;;;;;;;;;;;6.40;99.90;;;;;;5032420;28;20075;-59
2022/11/27 12:28:55;;;;;;;10.48;4.38;;;6.60;99.90;;;;;;5032070;28;19921;-59
2022/11/27 12:31:29;;;;;;;11.50;5.22;;;6.40;99.90;;;;;;5032054;28;20049;-59
2022/11/27 12:34:15;;;;;;;12.38;4.78;;;6.60;99.90;;;;;;5032213;28;20128;-58
2022/11/27 12:36:44;;;;;;;14.55;5.05;;;6.60;99.90;;;;;;5031893;28;20038;-59
2022/11/27 12:39:32;;;;;;;14.73;5.40;;;6.60;99.90;;;;;;5032209;28;20103;-59
2022/11/27 12:42:19;;;;;;;11.55;4.95;;;6.50;99.90;;;;;;5031964;28;20488;-60
2022/11/27 12:44:59;;;;;;;13.43;5.25;;;6.50;99.90;;;;;;5031924;28;20042;-58
2022/11/27 12:47:35;;;;;;;11.13;4.65;;;6.60;99.90;;;;;;5014042;28;20049;-59
2022/11/27 12:50:13;;;;;;;13.07;4.35;;;6.60;99.90;;;;;;5031884;28;20596;-58
2022/11/27 12:52:43;;;;;;;15.15;5.05;;;6.50;99.90;;;;;;5032850;28;20073;-60
2022/11/27 12:55:13;;;;;;;13.98;4.63;;;6.70;99.90;;;;;;5035911;28;20037;-59
2022/11/27 12:57:44;;;;;;;11.73;4.97;;;6.70;99.90;;;;;;5050017;28;20092;-59
2022/11/27 13:00:25;;;;;;;14.68;5.32;;;6.70;99.90;;;;;;5037846;28;20045;-58
2022/11/27 13:03:28;;;;;;;10.77;5.40;;;6.60;99.90;;;;;;5055773;28;20106;-58
2022/11/27 13:06:05;;;;;;;10.13;4.15;;;6.50;99.90;;;;;;5055626;28;20045;-59
2022/11/27 13:08:45;;;;;;;11.32;5.20;;;6.60;99.90;;;;;;5055484;28;20049;-59